Time;durP1;ratioP1;P1;durP2;ratioP2;P2;SDS_P1;SDS_P2;PMS_P1;PMS_P2;Temp;Humidity;BMP_temperature;BMP_pressure;BME280_temperature;BME280_humidity;BME280_pressure;Samples;Min_cycle;Max_cycle;Signal;HPM_P1;HPM_P2
2021/08/04 00:00:09;;;;;;;3.67;2.70;;;20.00;99.90;;;;;;5048517;28;20250;-70
2021/08/04 00:02:36;;;;;;;2.63;2.43;;;20.00;99.90;;;;;;5048040;28;20223;-70
2021/08/04 00:05:03;;;;;;;2.87;2.67;;;20.00;99.90;;;;;;5048239;28;20269;-70
2021/08/04 00:07:30;;;;;;;4.10;2.60;;;20.00;99.90;;;;;;5048102;28;20208;-70
2021/08/04 00:09:56;;;;;;;2.93;2.73;;;20.00;99.90;;;;;;5048311;28;20250;-70
2021/08/04 00:12:23;;;;;;;3.10;2.87;;;20.00;99.90;;;;;;5048026;28;20281;-70
2021/08/04 00:14:50;;;;;;;3.00;2.80;;;20.00;99.90;;;;;;5048137;28;20269;-70
2021/08/04 00:17:18;;;;;;;3.20;2.63;;;20.00;99.90;;;;;;5048123;28;20265;-70
2021/08/04 00:19:44;;;;;;;2.97;2.77;;;19.90;99.90;;;;;;5047416;28;20723;-70
2021/08/04 00:22:11;;;;;;;3.37;2.50;;;19.90;99.90;;;;;;5048058;28;20277;-70
2021/08/04 00:24:38;;;;;;;3.17;2.90;;;19.90;99.90;;;;;;5047826;28;20282;-70
2021/08/04 00:27:05;;;;;;;3.23;2.90;;;19.90;99.90;;;;;;5047929;28;20281;-70
2021/08/04 00:29:31;;;;;;;2.73;2.53;;;19.90;99.90;;;;;;5047505;28;20797;-70
2021/08/04 00:31:58;;;;;;;2.80;2.60;;;19.90;99.90;;;;;;5047874;28;20204;-71
2021/08/04 00:34:26;;;;;;;3.30;2.80;;;19.80;99.90;;;;;;5047745;28;20200;-71
2021/08/04 00:36:53;;;;;;;3.73;2.60;;;19.80;99.90;;;;;;5047928;28;20243;-71
2021/08/04 00:39:19;;;;;;;3.13;2.80;;;19.80;99.90;;;;;;5047612;28;20679;-71
2021/08/04 00:41:46;;;;;;;3.00;2.80;;;19.70;99.90;;;;;;5047568;28;20773;-71
2021/08/04 00:44:12;;;;;;;3.93;2.83;;;19.60;99.90;;;;;;5047726;28;20261;-71
2021/08/04 00:46:40;;;;;;;2.90;2.70;;;19.70;99.90;;;;;;5047604;28;20274;-72
2021/08/04 00:49:07;;;;;;;2.80;2.60;;;19.60;99.90;;;;;;5047601;28;20319;-72
2021/08/04 00:51:35;;;;;;;3.53;3.23;;;19.70;99.90;;;;;;5047729;28;20212;-72
2021/08/04 00:54:03;;;;;;;2.87;2.77;;;19.60;99.90;;;;;;5047666;28;20629;-72
2021/08/04 00:56:30;;;;;;;2.87;2.67;;;19.50;99.90;;;;;;5047066;28;20710;-71
2021/08/04 00:58:57;;;;;;;2.90;2.70;;;19.60;99.90;;;;;;5047447;28;20244;-71
2021/08/04 01:01:28;;;;;;;3.87;2.77;;;19.60;99.90;;;;;;5047617;28;20253;-71
2021/08/04 01:03:58;;;;;;;2.83;2.67;;;19.60;99.90;;;;;;5047830;28;20216;-71
2021/08/04 01:06:34;;;;;;;3.20;2.70;;;19.60;99.90;;;;;;5048782;28;20236;-71
2021/08/04 01:09:04;;;;;;;3.40;2.97;;;19.60;99.90;;;;;;5051311;28;20226;-71
2021/08/04 01:11:34;;;;;;;3.10;2.73;;;19.60;99.90;;;;;;5050966;28;20230;-71
2021/08/04 01:14:04;;;;;;;2.73;2.57;;;19.60;99.90;;;;;;5050888;28;20208;-71
2021/08/04 01:16:34;;;;;;;3.00;2.80;;;19.60;99.90;;;;;;5050592;28;20763;-71
2021/08/04 01:19:06;;;;;;;2.70;2.43;;;19.60;99.90;;;;;;5050938;28;20243;-71
2021/08/04 01:21:42;;;;;;;2.97;2.67;;;19.60;99.90;;;;;;5050917;28;20266;-71
2021/08/04 01:24:18;;;;;;;3.03;2.70;;;19.60;99.90;;;;;;5050770;28;20235;-71
2021/08/04 01:26:48;;;;;;;2.80;2.60;;;19.60;99.90;;;;;;5050752;28;20196;-72
2021/08/04 01:29:19;;;;;;;2.93;2.73;;;19.50;99.90;;;;;;5050715;28;20832;-72
2021/08/04 01:31:48;;;;;;;3.10;2.90;;;19.40;99.90;;;;;;5050778;28;20200;-72
2021/08/04 01:34:17;;;;;;;2.80;2.60;;;19.40;99.90;;;;;;5051098;28;20202;-73
2021/08/04 01:36:45;;;;;;;3.03;2.83;;;19.40;99.90;;;;;;5050855;28;20622;-72
2021/08/04 01:39:14;;;;;;;3.27;3.07;;;19.40;99.90;;;;;;5050781;28;20235;-73
2021/08/04 01:41:42;;;;;;;2.70;2.50;;;19.40;99.90;;;;;;5050500;28;20219;-73
2021/08/04 01:44:10;;;;;;;3.03;2.60;;;19.40;99.90;;;;;;5050438;28;20247;-73
2021/08/04 01:46:38;;;;;;;2.90;2.70;;;19.40;99.90;;;;;;5050410;28;20265;-73
2021/08/04 01:49:05;;;;;;;3.57;2.87;;;19.40;99.90;;;;;;5050424;28;20228;-74
2021/08/04 01:51:32;;;;;;;2.93;2.63;;;19.40;99.90;;;;;;5050361;28;20204;-73
2021/08/04 01:54:00;;;;;;;2.40;2.30;;;19.40;99.90;;;;;;5050079;28;20685;-73
2021/08/04 01:56:27;;;;;;;2.87;2.67;;;19.40;99.90;;;;;;5049933;28;20696;-73
2021/08/04 01:58:54;;;;;;;3.03;2.70;;;19.40;99.90;;;;;;5050074;28;20236;-73
2021/08/04 02:01:25;;;;;;;2.90;2.70;;;19.40;99.90;;;;;;5050335;28;20258;-73
2021/08/04 02:03:52;;;;;;;3.17;2.70;;;19.40;99.90;;;;;;5050136;28;20316;-73
2021/08/04 02:06:30;;;;;;;2.87;2.73;;;19.40;99.90;;;;;;5050271;28;20334;-74
2021/08/04 02:09:02;;;;;;;2.90;2.60;;;19.40;99.90;;;;;;5050070;28;20662;-72
2021/08/04 02:11:42;;;;;;;4.83;3.00;;;19.30;99.90;;;;;;5049979;28;20244;-72
2021/08/04 02:14:17;;;;;;;3.30;3.10;;;19.30;99.90;;;;;;5049796;28;20192;-72
2021/08/04 02:16:51;;;;;;;3.00;2.80;;;19.30;99.90;;;;;;5049823;28;20287;-71
2021/08/04 02:19:21;;;;;;;3.03;2.73;;;19.30;99.90;;;;;;5053358;28;20611;-70
2021/08/04 02:21:51;;;;;;;3.00;2.80;;;19.30;99.90;;;;;;5057432;28;20239;-72
2021/08/04 02:24:20;;;;;;;3.23;2.80;;;19.30;99.90;;;;;;5058585;28;20626;-71
2021/08/04 02:26:50;;;;;;;3.00;2.77;;;19.40;99.90;;;;;;5059404;28;20211;-72
2021/08/04 02:29:18;;;;;;;3.07;2.80;;;19.30;99.90;;;;;;5052669;28;20726;-72
2021/08/04 02:31:47;;;;;;;3.53;2.90;;;19.40;99.90;;;;;;5051011;28;20223;-72
2021/08/04 02:34:15;;;;;;;2.70;2.50;;;19.30;99.90;;;;;;5047468;28;20262;-72
2021/08/04 02:36:42;;;;;;;2.60;2.50;;;19.30;99.90;;;;;;5047509;28;20273;-72
2021/08/04 02:39:09;;;;;;;3.03;2.83;;;19.30;99.90;;;;;;5047171;28;20208;-73
2021/08/04 02:41:38;;;;;;;3.00;2.80;;;19.30;99.90;;;;;;5047118;28;20208;-73
2021/08/04 02:44:05;;;;;;;2.90;2.70;;;19.30;99.90;;;;;;5046922;28;20232;-72
2021/08/04 02:46:32;;;;;;;3.47;3.03;;;19.30;99.90;;;;;;5053538;28;20212;-72
2021/08/04 02:49:00;;;;;;;4.77;3.10;;;19.30;99.90;;;;;;5047412;28;20228;-76
2021/08/04 02:51:29;;;;;;;3.30;2.80;;;19.30;99.90;;;;;;5067400;28;20217;-75
2021/08/04 02:53:57;;;;;;;2.73;2.63;;;19.30;99.90;;;;;;5067083;28;20280;-75
2021/08/04 02:56:23;;;;;;;3.20;3.00;;;19.30;99.90;;;;;;5066452;28;20352;-73
2021/08/04 02:58:50;;;;;;;3.00;2.83;;;19.30;99.90;;;;;;5066483;28;20298;-72
2021/08/04 03:01:17;;;;;;;3.00;2.80;;;19.20;99.90;;;;;;5048495;28;20678;-72
2021/08/04 03:03:44;;;;;;;3.20;2.60;;;19.30;99.90;;;;;;5046686;28;20664;-72
2021/08/04 03:06:12;;;;;;;3.40;3.10;;;19.20;99.90;;;;;;5046657;28;20205;-72
2021/08/04 03:08:42;;;;;;;3.30;2.90;;;19.20;99.90;;;;;;5046144;28;20255;-72
2021/08/04 03:11:09;;;;;;;3.10;2.90;;;19.20;99.90;;;;;;5046759;28;20208;-72
2021/08/04 03:13:37;;;;;;;3.53;2.80;;;19.20;99.90;;;;;;5046212;28;20212;-72
2021/08/04 03:16:05;;;;;;;3.10;2.90;;;19.10;99.90;;;;;;5054366;28;20245;-72
2021/08/04 03:18:32;;;;;;;3.43;3.23;;;19.10;99.90;;;;;;5065996;28;20653;-72
2021/08/04 03:20:59;;;;;;;3.60;3.07;;;19.10;99.90;;;;;;5053587;28;20254;-73
2021/08/04 03:23:27;;;;;;;3.90;3.00;;;19.10;99.90;;;;;;5047381;28;20777;-72
2021/08/04 03:25:54;;;;;;;3.10;3.00;;;19.10;99.90;;;;;;5047473;28;20216;-72
2021/08/04 03:28:20;;;;;;;3.10;2.97;;;19.00;99.90;;;;;;5048238;28;20214;-73
2021/08/04 03:30:47;;;;;;;3.20;3.00;;;19.00;99.90;;;;;;5048343;28;20208;-72
2021/08/04 03:33:14;;;;;;;3.30;3.10;;;19.00;99.90;;;;;;5048837;28;20208;-73
2021/08/04 03:35:40;;;;;;;3.50;3.30;;;19.00;99.90;;;;;;5048508;28;20573;-73
2021/08/04 03:38:07;;;;;;;3.43;3.00;;;19.00;99.90;;;;;;5048480;28;20293;-73
2021/08/04 03:40:35;;;;;;;3.40;3.20;;;18.90;99.90;;;;;;5048481;28;20203;-73
2021/08/04 03:43:02;;;;;;;2.97;2.77;;;18.90;99.90;;;;;;5048302;28;20220;-72
2021/08/04 03:45:29;;;;;;;3.13;2.87;;;18.90;99.90;;;;;;5048449;28;20228;-72
2021/08/04 03:47:55;;;;;;;2.80;2.70;;;18.90;99.90;;;;;;5048464;28;20228;-73
2021/08/04 03:50:22;;;;;;;3.33;2.80;;;18.90;99.90;;;;;;5048461;28;20262;-72
2021/08/04 03:52:48;;;;;;;3.40;3.20;;;18.90;99.90;;;;;;5048247;28;20212;-73
2021/08/04 03:55:15;;;;;;;3.13;2.87;;;18.90;99.90;;;;;;5048270;28;20265;-73
2021/08/04 03:57:43;;;;;;;3.13;2.93;;;18.90;99.90;;;;;;5047679;28;20212;-72
2021/08/04 04:00:12;;;;;;;3.57;3.27;;;18.90;99.90;;;;;;5048446;28;20242;-73
2021/08/04 04:02:38;;;;;;;3.07;2.90;;;18.90;99.90;;;;;;5048213;28;20610;-73
2021/08/04 04:05:07;;;;;;;2.90;2.70;;;18.90;99.90;;;;;;5048063;28;20235;-72
2021/08/04 04:07:33;;;;;;;3.30;3.10;;;18.90;99.90;;;;;;5047905;28;20593;-73
2021/08/04 04:10:00;;;;;;;3.50;3.20;;;18.90;99.90;;;;;;5048035;28;20215;-72
2021/08/04 04:12:27;;;;;;;3.40;3.10;;;18.90;99.90;;;;;;5048092;28;20208;-72
2021/08/04 04:14:55;;;;;;;3.00;2.80;;;18.90;99.90;;;;;;5048151;28;20236;-72
2021/08/04 04:17:21;;;;;;;3.00;2.83;;;18.90;99.90;;;;;;5048154;28;20262;-73
2021/08/04 04:19:48;;;;;;;3.30;3.00;;;18.90;99.90;;;;;;5047915;28;20826;-72
2021/08/04 04:22:15;;;;;;;3.57;3.27;;;18.90;99.90;;;;;;5047902;28;20224;-72
2021/08/04 04:24:41;;;;;;;3.33;3.10;;;18.90;99.90;;;;;;5047866;28;20576;-72
2021/08/04 04:27:08;;;;;;;3.63;3.07;;;18.90;99.90;;;;;;5047911;28;20208;-72
2021/08/04 04:29:34;;;;;;;4.13;3.17;;;18.90;99.90;;;;;;5047861;28;20722;-72
2021/08/04 04:32:03;;;;;;;3.50;3.30;;;18.90;99.90;;;;;;5047851;28;20204;-72
2021/08/04 04:34:29;;;;;;;3.80;3.50;;;18.90;99.90;;;;;;5047844;28;20254;-72
2021/08/04 04:36:56;;;;;;;3.70;3.50;;;18.90;99.90;;;;;;5047799;28;20240;-72
2021/08/04 04:39:23;;;;;;;3.57;3.03;;;18.90;99.90;;;;;;5047618;28;20640;-72
2021/08/04 04:41:49;;;;;;;3.97;3.57;;;18.90;99.90;;;;;;5049989;28;20254;-73
2021/08/04 04:44:16;;;;;;;3.47;3.23;;;18.90;99.90;;;;;;5051376;28;20755;-72
2021/08/04 04:46:42;;;;;;;3.73;3.43;;;18.90;99.90;;;;;;5051797;28;20204;-72
2021/08/04 04:49:10;;;;;;;4.63;3.43;;;18.90;99.90;;;;;;5051371;28;20693;-73
2021/08/04 04:51:37;;;;;;;4.07;3.77;;;18.90;99.90;;;;;;5051297;28;20204;-72
2021/08/04 04:54:04;;;;;;;3.90;3.60;;;19.00;99.90;;;;;;5051633;28;20619;-72
2021/08/04 04:56:30;;;;;;;3.53;3.33;;;19.00;99.90;;;;;;5051582;28;20205;-73
2021/08/04 04:58:57;;;;;;;5.10;3.30;;;19.00;99.90;;;;;;5051288;28;20262;-73
2021/08/04 05:01:24;;;;;;;3.40;3.20;;;19.00;99.90;;;;;;5051485;28;20212;-73
2021/08/04 05:03:50;;;;;;;4.13;3.23;;;19.00;99.90;;;;;;5050883;28;20737;-72
2021/08/04 05:06:18;;;;;;;4.43;3.13;;;19.00;99.90;;;;;;5051331;28;20204;-72
2021/08/04 05:08:45;;;;;;;3.40;3.20;;;18.90;99.90;;;;;;5050960;28;20208;-72
2021/08/04 05:11:12;;;;;;;3.70;3.40;;;19.00;99.90;;;;;;5051256;28;20233;-72
2021/08/04 05:13:38;;;;;;;4.00;3.70;;;19.00;99.90;;;;;;5050982;28;20212;-73
2021/08/04 05:16:06;;;;;;;5.73;3.90;;;19.00;99.90;;;;;;5051015;28;20200;-72
2021/08/04 05:18:33;;;;;;;3.60;3.30;;;19.00;99.90;;;;;;5050775;28;20658;-73
2021/08/04 05:20:59;;;;;;;3.77;3.50;;;19.10;99.90;;;;;;5065508;28;20613;-73
2021/08/04 05:23:27;;;;;;;3.93;3.63;;;19.10;99.90;;;;;;5070812;28;20223;-72
2021/08/04 05:25:54;;;;;;;4.73;4.33;;;19.10;99.90;;;;;;5070664;28;20207;-72
2021/08/04 05:28:20;;;;;;;4.47;4.07;;;19.10;99.90;;;;;;5070511;28;20218;-73
2021/08/04 05:30:47;;;;;;;5.20;3.23;;;19.10;99.90;;;;;;5070783;28;20288;-72
2021/08/04 05:33:14;;;;;;;12.70;4.77;;;19.00;99.90;;;;;;5070795;28;20199;-72
2021/08/04 05:35:40;;;;;;;5.87;4.10;;;19.00;99.90;;;;;;5070335;28;20211;-73
2021/08/04 05:38:07;;;;;;;3.70;3.50;;;19.00;99.90;;;;;;5070762;28;20207;-73
2021/08/04 05:40:35;;;;;;;4.20;3.80;;;19.10;99.90;;;;;;5070765;28;20203;-73
2021/08/04 05:43:01;;;;;;;4.90;3.73;;;19.00;99.90;;;;;;5070378;28;20743;-72
2021/08/04 05:45:28;;;;;;;4.13;3.73;;;19.00;99.90;;;;;;5070481;28;20262;-72
2021/08/04 05:47:55;;;;;;;3.87;3.57;;;19.00;99.90;;;;;;5070512;28;20598;-73
2021/08/04 05:50:22;;;;;;;7.90;3.80;;;19.10;99.90;;;;;;5070539;28;20419;-73
2021/08/04 05:52:50;;;;;;;4.83;4.37;;;19.10;99.90;;;;;;5070049;28;20234;-72
2021/08/04 05:55:17;;;;;;;3.73;3.50;;;19.20;99.90;;;;;;5069991;28;20231;-73
2021/08/04 05:57:45;;;;;;;3.87;3.60;;;19.30;99.90;;;;;;5069855;28;20261;-72
2021/08/04 06:00:12;;;;;;;5.63;3.37;;;19.30;99.90;;;;;;5070414;28;20199;-73
2021/08/04 06:02:39;;;;;;;4.13;3.30;;;19.30;99.90;;;;;;5070174;28;20207;-72
2021/08/04 06:05:06;;;;;;;4.33;3.90;;;19.40;99.90;;;;;;5070103;28;20266;-72
2021/08/04 06:07:33;;;;;;;4.03;3.23;;;19.40;99.90;;;;;;5070085;28;20216;-73
2021/08/04 06:10:00;;;;;;;4.90;3.70;;;19.50;99.90;;;;;;5070045;28;20637;-72
2021/08/04 06:12:26;;;;;;;3.77;3.50;;;19.40;99.90;;;;;;5070097;28;20203;-73
2021/08/04 06:14:54;;;;;;;3.73;3.43;;;19.50;99.90;;;;;;5070021;28;20243;-72
2021/08/04 06:17:21;;;;;;;3.33;3.07;;;19.50;99.90;;;;;;5070102;28;20211;-73
2021/08/04 06:19:47;;;;;;;4.13;3.10;;;19.50;99.90;;;;;;5069653;28;20211;-73
2021/08/04 06:22:14;;;;;;;3.37;3.17;;;19.50;99.90;;;;;;5069589;28;20280;-73
2021/08/04 06:24:41;;;;;;;3.33;3.13;;;19.50;99.90;;;;;;5069681;28;20584;-72
2021/08/04 06:27:07;;;;;;;5.37;3.67;;;19.50;99.90;;;;;;5069587;28;20200;-73
2021/08/04 06:29:34;;;;;;;3.47;3.20;;;19.50;99.90;;;;;;5069803;28;20245;-72
2021/08/04 06:32:02;;;;;;;3.37;3.17;;;19.50;99.90;;;;;;5069607;28;20199;-73
2021/08/04 06:34:29;;;;;;;3.23;3.00;;;19.50;99.90;;;;;;5069715;28;20276;-72
2021/08/04 06:36:56;;;;;;;3.83;3.30;;;19.60;99.90;;;;;;5069527;28;20249;-72
2021/08/04 06:39:22;;;;;;;3.40;3.20;;;19.60;99.90;;;;;;5069567;28;20215;-73
2021/08/04 06:41:49;;;;;;;4.13;3.73;;;19.60;99.90;;;;;;5069233;28;20253;-73
2021/08/04 06:44:16;;;;;;;3.90;3.60;;;19.60;99.90;;;;;;5069265;28;20285;-73
2021/08/04 06:46:42;;;;;;;6.80;4.17;;;19.60;99.90;;;;;;5069210;28;20228;-72
2021/08/04 06:49:10;;;;;;;6.33;3.50;;;19.60;99.90;;;;;;5069491;28;20203;-72
2021/08/04 06:51:37;;;;;;;5.47;3.40;;;19.70;99.90;;;;;;5069264;28;20239;-72
2021/08/04 06:54:04;;;;;;;3.73;3.43;;;19.70;99.90;;;;;;5069248;28;20264;-72
2021/08/04 06:56:31;;;;;;;3.30;3.10;;;19.70;99.90;;;;;;5068841;28;20203;-72
2021/08/04 06:58:57;;;;;;;3.43;3.23;;;19.70;99.90;;;;;;5068596;28;20790;-72
2021/08/04 07:01:24;;;;;;;4.07;3.03;;;19.70;99.90;;;;;;5069048;28;20418;-73
2021/08/04 07:03:51;;;;;;;3.90;3.70;;;19.70;99.90;;;;;;5068057;28;20203;-72
2021/08/04 07:06:19;;;;;;;2.93;2.83;;;19.70;99.90;;;;;;5069111;28;20203;-73
2021/08/04 07:08:45;;;;;;;3.60;3.30;;;19.80;99.90;;;;;;5068468;28;20662;-73
2021/08/04 07:11:12;;;;;;;3.90;3.60;;;19.80;99.90;;;;;;5068880;28;20207;-72
2021/08/04 07:13:39;;;;;;;3.40;3.20;;;19.80;99.90;;;;;;5068808;28;20230;-73
2021/08/04 07:16:06;;;;;;;3.33;3.03;;;19.80;99.90;;;;;;5068486;28;20628;-73
2021/08/04 07:18:33;;;;;;;3.47;3.27;;;19.80;99.90;;;;;;5068780;28;20208;-73
2021/08/04 07:21:00;;;;;;;3.47;3.17;;;19.80;99.90;;;;;;5068548;28;20207;-73
2021/08/04 07:23:29;;;;;;;3.47;3.17;;;19.80;99.90;;;;;;5068569;28;20281;-73
2021/08/04 07:25:56;;;;;;;3.60;3.40;;;19.80;99.90;;;;;;5068514;28;20239;-72
2021/08/04 07:28:22;;;;;;;3.70;3.50;;;19.80;99.90;;;;;;5068686;28;20215;-72
2021/08/04 07:30:49;;;;;;;3.43;3.23;;;19.80;99.90;;;;;;5068507;28;20265;-72
2021/08/04 07:33:16;;;;;;;3.80;3.50;;;19.90;99.90;;;;;;5068510;28;20284;-72
2021/08/04 07:35:43;;;;;;;3.77;3.47;;;19.90;99.90;;;;;;5068560;28;20821;-72
2021/08/04 07:38:09;;;;;;;3.70;3.40;;;19.90;99.90;;;;;;5068466;28;20238;-72
2021/08/04 07:40:38;;;;;;;4.13;3.83;;;20.00;99.90;;;;;;5068507;28;20243;-72
2021/08/04 07:43:04;;;;;;;4.00;3.60;;;19.90;99.90;;;;;;5068000;28;20596;-72
2021/08/04 07:45:31;;;;;;;5.30;3.97;;;20.00;99.90;;;;;;5068294;28;20262;-72
2021/08/04 07:47:58;;;;;;;5.13;4.07;;;20.00;99.90;;;;;;5068249;28;20224;-72
2021/08/04 07:50:24;;;;;;;5.40;3.83;;;20.10;99.90;;;;;;5068313;28;20235;-72
2021/08/04 07:52:51;;;;;;;10.73;3.87;;;20.10;99.90;;;;;;5068456;28;20208;-72
2021/08/04 07:55:18;;;;;;;5.03;3.90;;;20.10;99.90;;;;;;5068297;28;20250;-72
2021/08/04 07:57:46;;;;;;;4.17;3.77;;;20.10;99.90;;;;;;5067796;28;20215;-72
2021/08/04 08:00:13;;;;;;;5.87;4.00;;;20.10;99.90;;;;;;5068301;28;20203;-72
2021/08/04 08:02:40;;;;;;;4.83;4.00;;;20.10;99.90;;;;;;5068336;28;20261;-72
2021/08/04 08:05:08;;;;;;;4.40;4.03;;;20.10;99.90;;;;;;5068083;28;20231;-72
2021/08/04 08:07:35;;;;;;;3.93;3.63;;;20.20;99.90;;;;;;5067723;28;20642;-72
2021/08/04 08:10:03;;;;;;;4.90;4.40;;;20.20;99.90;;;;;;5067975;28;20207;-72
2021/08/04 08:12:30;;;;;;;4.70;4.37;;;20.20;99.90;;;;;;5068041;28;20662;-72
2021/08/04 08:14:58;;;;;;;4.93;4.53;;;20.20;99.90;;;;;;5068731;28;20211;-72
2021/08/04 08:17:24;;;;;;;3.80;3.60;;;20.20;99.90;;;;;;5072117;28;20277;-72
2021/08/04 08:19:51;;;;;;;5.93;3.33;;;20.20;99.90;;;;;;5071566;28;20245;-72
2021/08/04 08:22:17;;;;;;;3.97;3.67;;;20.30;99.90;;;;;;5072178;28;20231;-73
2021/08/04 08:24:44;;;;;;;3.90;3.60;;;20.20;99.90;;;;;;5071589;28;20699;-73
2021/08/04 08:27:11;;;;;;;3.43;3.27;;;20.30;99.90;;;;;;5071925;28;20335;-72
2021/08/04 08:29:37;;;;;;;4.00;3.77;;;20.30;99.90;;;;;;5071940;28;20365;-72
2021/08/04 08:32:06;;;;;;;4.73;4.20;;;20.30;99.90;;;;;;5071895;28;20211;-72
2021/08/04 08:34:33;;;;;;;3.93;3.70;;;20.30;99.90;;;;;;5072163;28;20265;-72
2021/08/04 08:36:59;;;;;;;3.97;3.57;;;20.30;99.90;;;;;;5071309;28;20239;-72
2021/08/04 08:39:26;;;;;;;3.53;3.13;;;20.30;99.90;;;;;;5071951;28;20264;-72
2021/08/04 08:41:53;;;;;;;3.53;3.33;;;20.40;99.90;;;;;;5071615;28;20475;-72
2021/08/04 08:44:22;;;;;;;3.60;3.03;;;20.50;99.90;;;;;;5071361;28;20235;-72
2021/08/04 08:46:49;;;;;;;4.30;3.50;;;20.60;99.90;;;;;;5071432;28;20223;-72
2021/08/04 08:49:25;;;;;;;3.53;3.23;;;20.60;99.90;;;;;;5071322;28;20658;-72
2021/08/04 08:51:52;;;;;;;3.43;3.07;;;20.70;99.90;;;;;;5071869;28;20348;-72
2021/08/04 08:54:18;;;;;;;3.80;3.50;;;20.70;99.90;;;;;;5071493;28;20214;-72
2021/08/04 08:56:45;;;;;;;3.40;3.20;;;20.80;99.90;;;;;;5071482;28;20207;-72
2021/08/04 08:59:15;;;;;;;3.97;3.13;;;20.80;99.90;;;;;;5070868;28;20243;-72
2021/08/04 09:01:42;;;;;;;3.78;3.42;;;20.90;99.90;;;;;;5071125;28;20249;-72
2021/08/04 09:04:12;;;;;;;3.80;3.50;;;21.00;99.90;;;;;;5071228;28;20203;-72
2021/08/04 09:06:51;;;;;;;3.43;3.20;;;21.00;99.90;;;;;;5071371;28;20238;-72
2021/08/04 09:09:21;;;;;;;3.03;2.83;;;21.10;99.90;;;;;;5071133;28;20203;-72
2021/08/04 09:11:49;;;;;;;3.20;3.00;;;21.30;99.90;;;;;;5070843;28;20211;-72
2021/08/04 09:14:16;;;;;;;3.30;3.10;;;21.40;99.90;;;;;;5070818;28;20204;-72
2021/08/04 09:16:44;;;;;;;3.10;2.80;;;21.40;99.90;;;;;;5070834;28;20265;-72
2021/08/04 09:19:20;;;;;;;4.50;3.43;;;21.40;99.90;;;;;;5070973;28;20212;-72
2021/08/04 09:22:07;;;;;;;3.97;3.10;;;21.60;99.90;;;;;;5070736;28;20247;-72
2021/08/04 09:24:52;;;;;;;3.22;2.92;;;21.70;99.90;;;;;;5070664;28;20227;-72
2021/08/04 09:27:19;;;;;;;4.53;3.08;;;21.90;99.90;;;;;;5070073;28;20196;-72
2021/08/04 09:29:58;;;;;;;3.80;3.03;;;21.90;99.90;;;;;;5070771;28;20237;-72
2021/08/04 09:32:26;;;;;;;3.50;3.20;;;22.10;99.90;;;;;;5070726;28;20205;-72
2021/08/04 09:34:53;;;;;;;4.03;3.00;;;22.20;99.90;;;;;;5070605;28;20211;-72
2021/08/04 09:37:21;;;;;;;3.17;2.97;;;22.30;99.90;;;;;;5070529;28;20203;-72
2021/08/04 09:40:01;;;;;;;2.85;2.65;;;22.40;99.90;;;;;;5070238;28;20653;-72
2021/08/04 09:42:42;;;;;;;2.95;2.75;;;22.40;99.90;;;;;;5070767;28;20191;-72
2021/08/04 09:45:09;;;;;;;3.40;3.10;;;22.40;99.90;;;;;;5070115;28;20292;-73
2021/08/04 09:47:36;;;;;;;3.85;3.55;;;22.40;99.90;;;;;;5070317;28;20538;-72
2021/08/04 09:50:06;;;;;;;3.53;2.80;;;22.30;99.90;;;;;;5070284;28;20338;-73
2021/08/04 09:52:35;;;;;;;3.33;3.13;;;22.30;99.90;;;;;;5070288;28;20196;-72
2021/08/04 09:55:12;;;;;;;2.80;2.60;;;22.40;99.90;;;;;;5070358;28;20208;-72
2021/08/04 09:57:43;;;;;;;2.88;2.60;;;22.50;99.90;;;;;;5069689;28;20250;-72
2021/08/04 10:00:11;;;;;;;2.72;2.53;;;22.60;99.90;;;;;;5070221;28;20196;-73
2021/08/04 10:02:38;;;;;;;3.88;2.78;;;22.70;99.90;;;;;;5069993;28;20233;-72
2021/08/04 10:05:18;;;;;;;2.90;2.70;;;22.70;99.90;;;;;;5070093;28;20422;-73
2021/08/04 10:08:07;;;;;;;5.15;2.75;;;22.70;99.90;;;;;;5070425;28;20249;-72
2021/08/04 10:10:36;;;;;;;2.85;2.65;;;22.70;99.90;;;;;;5070388;28;20241;-72
2021/08/04 10:13:04;;;;;;;3.15;2.67;;;22.60;99.90;;;;;;5070285;28;20207;-72
2021/08/04 10:15:38;;;;;;;2.75;2.55;;;22.70;99.90;;;;;;5070195;28;20219;-73
2021/08/04 10:18:07;;;;;;;2.80;2.60;;;22.70;99.90;;;;;;5069812;28;20253;-73
2021/08/04 10:20:34;;;;;;;2.60;2.40;;;22.80;99.90;;;;;;5069777;28;20254;-72
2021/08/04 10:23:01;;;;;;;2.70;2.50;;;22.90;99.90;;;;;;5069681;28;20223;-73
2021/08/04 10:25:30;;;;;;;2.40;2.30;;;22.90;99.90;;;;;;5069295;28;20632;-73
2021/08/04 10:27:57;;;;;;;2.70;2.50;;;23.00;99.90;;;;;;5069516;28;20207;-72
2021/08/04 10:30:23;;;;;;;4.30;2.80;;;23.00;99.90;;;;;;5069662;28;20285;-72
2021/08/04 10:32:50;;;;;;;2.75;2.58;;;23.10;99.90;;;;;;5069682;28;20207;-72
2021/08/04 10:35:17;;;;;;;2.78;2.58;;;23.20;99.90;;;;;;5069537;28;20257;-73
2021/08/04 10:37:44;;;;;;;3.58;2.65;;;23.20;99.90;;;;;;5069343;28;20203;-73
2021/08/04 10:40:11;;;;;;;2.63;2.42;;;23.20;99.90;;;;;;5068743;28;20215;-73
2021/08/04 10:42:41;;;;;;;2.55;2.45;;;23.20;99.90;;;;;;5069417;28;20199;-73
2021/08/04 10:45:30;;;;;;;2.53;2.22;;;23.20;99.90;;;;;;5068985;28;20273;-73
2021/08/04 10:48:16;;;;;;;2.72;2.53;;;23.20;99.90;;;;;;5069329;28;20285;-73
2021/08/04 10:51:15;;;;;;;2.55;2.35;;;23.10;99.90;;;;;;5069327;28;20203;-73
2021/08/04 10:54:17;;;;;;;2.63;2.42;;;23.00;99.90;;;;;;5069291;28;20203;-73
2021/08/04 10:57:07;;;;;;;4.82;2.55;;;23.00;99.90;;;;;;5064700;28;20203;-72
2021/08/04 10:59:36;;;;;;;2.42;2.33;;;23.00;99.90;;;;;;5068856;28;20253;-73
2021/08/04 11:02:31;;;;;;;4.43;2.10;;;22.90;99.90;;;;;;5069101;28;20210;-73
2021/08/04 11:04:59;;;;;;;2.95;2.35;;;22.80;99.90;;;;;;5068776;28;20196;-73
2021/08/04 11:07:26;;;;;;;2.63;2.47;;;22.80;99.90;;;;;;5068843;28;20214;-73
2021/08/04 11:10:01;;;;;;;12.40;2.75;;;22.80;99.90;;;;;;5068894;28;20297;-73
2021/08/04 11:12:42;;;;;;;2.55;2.35;;;22.90;99.90;;;;;;5068912;28;20198;-73
2021/08/04 11:15:38;;;;;;;4.35;2.40;;;23.10;99.90;;;;;;5068890;28;20207;-72
2021/08/04 11:18:08;;;;;;;3.17;2.40;;;23.10;99.90;;;;;;5069114;28;20257;-73
2021/08/04 11:21:00;;;;;;;2.70;2.22;;;23.10;99.90;;;;;;5068688;28;20661;-73
2021/08/04 11:23:47;;;;;;;3.20;2.67;;;23.10;99.90;;;;;;5068493;28;20272;-73
2021/08/04 11:26:26;;;;;;;2.58;2.38;;;23.10;99.90;;;;;;5068516;28;20231;-73
2021/08/04 11:28:54;;;;;;;2.72;2.53;;;23.00;99.90;;;;;;5068638;28;20257;-72
2021/08/04 11:31:23;;;;;;;3.13;2.67;;;23.00;99.90;;;;;;5068183;28;20210;-73
2021/08/04 11:33:50;;;;;;;2.50;2.40;;;22.90;99.90;;;;;;5068757;28;20203;-73
2021/08/04 11:36:23;;;;;;;2.78;2.58;;;22.80;99.90;;;;;;5068033;28;20696;-73
2021/08/04 11:39:01;;;;;;;3.53;2.40;;;22.80;99.90;;;;;;5068479;28;20203;-73
2021/08/04 11:41:44;;;;;;;2.35;2.22;;;22.70;99.90;;;;;;5068674;28;20188;-73
2021/08/04 11:44:20;;;;;;;2.58;2.38;;;22.60;99.90;;;;;;5068254;28;20285;-73
2021/08/04 11:46:50;;;;;;;2.42;2.20;;;22.50;99.90;;;;;;5068358;28;20242;-73
2021/08/04 11:49:20;;;;;;;2.47;2.30;;;22.40;99.90;;;;;;5068551;28;20261;-73
2021/08/04 11:51:50;;;;;;;2.67;2.47;;;22.30;99.90;;;;;;5068937;28;20222;-73
2021/08/04 11:54:31;;;;;;;2.92;2.38;;;22.30;99.90;;;;;;5068508;28;20199;-73
2021/08/04 11:56:58;;;;;;;2.30;2.13;;;22.20;99.90;;;;;;5067967;28;20695;-73
2021/08/04 11:59:25;;;;;;;2.75;2.55;;;22.10;99.90;;;;;;5067836;28;20308;-73
2021/08/04 12:02:04;;;;;;;6.65;3.10;;;22.00;99.90;;;;;;5068304;28;20203;-73
2021/08/04 12:04:32;;;;;;;6.30;2.60;;;22.00;99.90;;;;;;5068282;28;20196;-73
2021/08/04 12:07:05;;;;;;;3.38;3.08;;;21.90;99.90;;;;;;5068046;28;20239;-73
2021/08/04 12:09:33;;;;;;;2.80;2.70;;;21.80;99.90;;;;;;5068224;28;20282;-73
2021/08/04 12:12:01;;;;;;;3.40;2.75;;;21.80;99.90;;;;;;5068162;28;20207;-73
2021/08/04 12:14:28;;;;;;;3.38;2.40;;;21.70;99.90;;;;;;5068123;28;20203;-73
2021/08/04 12:16:58;;;;;;;2.20;2.00;;;21.70;99.90;;;;;;5068162;28;20273;-73
2021/08/04 12:19:32;;;;;;;2.45;2.20;;;21.60;99.90;;;;;;5068113;28;20207;-72
2021/08/04 12:21:59;;;;;;;2.58;2.10;;;21.60;99.90;;;;;;5067957;28;20227;-72
2021/08/04 12:24:26;;;;;;;2.08;1.92;;;21.60;99.90;;;;;;5068003;28;20632;-73
2021/08/04 12:26:54;;;;;;;2.10;1.90;;;21.60;99.90;;;;;;5067751;28;20699;-73
2021/08/04 12:29:24;;;;;;;1.80;1.70;;;21.60;99.90;;;;;;5067991;28;20203;-73
2021/08/04 12:32:06;;;;;;;1.83;1.73;;;21.60;99.90;;;;;;5068037;28;20207;-73
2021/08/04 12:34:43;;;;;;;1.90;1.80;;;21.60;99.90;;;;;;5068131;28;20196;-72
2021/08/04 12:37:11;;;;;;;1.98;1.80;;;21.60;99.90;;;;;;5067672;28;20204;-73
2021/08/04 12:39:38;;;;;;;3.28;2.00;;;21.70;99.90;;;;;;5068120;28;20256;-73
2021/08/04 12:42:05;;;;;;;2.33;1.90;;;21.70;99.90;;;;;;5068018;28;20212;-73
2021/08/04 12:44:32;;;;;;;2.05;1.85;;;21.70;99.90;;;;;;5067828;28;20291;-73
2021/08/04 12:46:59;;;;;;;2.30;2.20;;;21.70;99.90;;;;;;5067634;28;20231;-73
2021/08/04 12:49:28;;;;;;;3.35;2.22;;;21.70;99.90;;;;;;5067683;28;20681;-73
2021/08/04 12:51:57;;;;;;;1.88;1.77;;;21.70;99.90;;;;;;5068019;28;20207;-73
2021/08/04 12:54:27;;;;;;;3.47;2.60;;;21.60;99.90;;;;;;5067882;28;20211;-73